createdAt,value
2018-02-18T00:01:29.102Z,20.43
2018-02-18T00:03:56.663Z,20.23
2018-02-18T00:06:24.201Z,20.13
2018-02-18T00:08:52.490Z,20.60
2018-02-18T00:11:20.003Z,21.47
2018-02-18T00:13:47.536Z,20.30
2018-02-18T00:16:15.046Z,20.07
2018-02-18T00:18:43.334Z,21.10
2018-02-18T00:21:10.898Z,20.33
2018-02-18T00:23:38.418Z,20.73
2018-02-18T00:26:05.918Z,20.10
2018-02-18T00:28:33.438Z,20.90
2018-02-18T00:31:00.950Z,19.60
2018-02-18T00:33:28.470Z,21.80
2018-02-18T00:35:56.740Z,22.33
2018-02-18T00:38:25.026Z,22.60
2018-02-18T00:40:53.294Z,22.83
2018-02-18T00:43:21.580Z,24.13
2018-02-18T00:45:49.842Z,22.13
2018-02-18T00:48:18.128Z,21.80
2018-02-18T00:50:46.395Z,21.93
2018-02-18T00:53:14.684Z,21.23
2018-02-18T00:55:42.955Z,23.40
2018-02-18T00:58:11.242Z,22.10
2018-02-18T01:00:38.815Z,21.20
2018-02-18T01:03:06.338Z,21.57
2018-02-18T01:05:34.615Z,21.50
2018-02-18T01:08:02.926Z,23.53
2018-02-18T01:10:30.431Z,22.20
2018-02-18T01:12:57.951Z,21.73
2018-02-18T01:15:25.451Z,22.07
2018-02-18T01:17:52.975Z,22.53
2018-02-18T01:20:20.482Z,22.30
2018-02-18T01:22:48.778Z,22.40
2018-02-18T01:25:16.282Z,22.00
2018-02-18T01:27:43.805Z,20.97
2018-02-18T01:30:11.369Z,22.80
2018-02-18T01:32:38.906Z,23.90
2018-02-18T01:35:07.177Z,22.67
2018-02-18T01:37:35.467Z,23.00
2018-02-18T01:40:02.970Z,22.57
2018-02-18T01:42:30.490Z,22.87
2018-02-18T01:44:58.046Z,23.50
2018-02-18T01:47:25.561Z,23.07
2018-02-18T01:49:53.068Z,24.77
2018-02-18T01:52:20.585Z,22.77
2018-02-18T01:54:48.087Z,22.90
2018-02-18T01:57:15.624Z,23.30
2018-02-18T01:59:43.899Z,24.47
2018-02-18T02:02:11.436Z,23.17
2018-02-18T02:04:38.957Z,22.20
2018-02-18T02:07:06.474Z,22.73
2018-02-18T02:09:34.768Z,23.53
2018-02-18T02:12:02.279Z,23.60
2018-02-18T02:14:30.562Z,24.10
2018-02-18T02:16:58.068Z,23.63
2018-02-18T02:19:25.595Z,24.17
2018-02-18T02:21:53.863Z,23.50
2018-02-18T02:24:22.150Z,25.13
2018-02-18T02:26:50.415Z,24.33
2018-02-18T02:29:18.707Z,25.10
2018-02-18T02:31:46.975Z,24.30
2018-02-18T02:34:15.272Z,25.00
2018-02-18T02:36:42.780Z,23.40
2018-02-18T02:39:10.308Z,24.77
2018-02-18T02:41:37.815Z,24.60
2018-02-18T02:44:06.108Z,25.50
2018-02-18T02:46:34.382Z,24.83
2018-02-18T02:49:02.675Z,24.87
2018-02-18T02:51:30.183Z,24.67
2018-02-18T02:53:57.707Z,24.67
2018-02-18T02:56:25.215Z,24.47
2018-02-18T02:58:52.736Z,23.70
2018-02-18T03:01:20.239Z,24.17
2018-02-18T03:03:48.543Z,24.03
2018-02-18T03:06:16.047Z,24.20
2018-02-18T03:08:43.567Z,23.00
2018-02-18T03:11:11.071Z,25.43
2018-02-18T03:13:38.671Z,26.60
2018-02-18T03:16:06.183Z,25.50
2018-02-18T03:18:33.799Z,26.80
2018-02-18T03:21:01.355Z,25.17
2018-02-18T03:23:28.897Z,24.67
2018-02-18T03:25:57.166Z,25.07
2018-02-18T03:28:25.459Z,24.60
2018-02-18T03:30:52.968Z,25.90
2018-02-18T03:33:20.473Z,24.43
2018-02-18T03:35:47.991Z,26.10
2018-02-18T03:38:15.493Z,22.93
2018-02-18T03:40:43.014Z,25.10
2018-02-18T03:43:10.520Z,24.83
2018-02-18T03:45:38.042Z,26.03
2018-02-18T03:48:06.318Z,24.60
2018-02-18T03:50:34.607Z,24.90
2018-02-18T03:53:02.874Z,24.70
2018-02-18T03:55:31.171Z,23.73
2018-02-18T03:57:58.671Z,23.97
2018-02-18T04:00:26.190Z,25.63
2018-02-18T04:02:53.700Z,25.23
2018-02-18T04:05:21.228Z,25.40
2018-02-18T04:07:48.763Z,24.63
2018-02-18T04:10:16.290Z,22.87
2018-02-18T04:12:44.558Z,22.47
2018-02-18T04:15:12.095Z,24.10
2018-02-18T04:17:39.593Z,24.00
2018-02-18T04:20:07.873Z,26.73
2018-02-18T04:22:36.190Z,23.77
2018-02-18T04:25:03.724Z,24.43
2018-02-18T04:27:31.236Z,26.47
2018-02-18T04:29:58.751Z,26.00
2018-02-18T04:32:26.259Z,24.73
2018-02-18T04:34:53.781Z,23.93
2018-02-18T04:37:21.282Z,23.40
2018-02-18T04:39:49.194Z,27.70
2018-02-18T04:42:16.731Z,25.60
2018-02-18T04:44:45.014Z,24.37
2018-02-18T04:47:12.520Z,25.20
2018-02-18T04:49:40.034Z,24.73
2018-02-18T04:52:08.304Z,24.77
2018-02-18T04:54:35.825Z,25.33
2018-02-18T04:57:03.331Z,24.97
2018-02-18T04:59:30.859Z,25.30
2018-02-18T05:01:59.121Z,26.87
2018-02-18T05:04:26.722Z,25.83
2018-02-18T05:06:54.232Z,24.73
2018-02-18T05:09:21.738Z,26.80
2018-02-18T05:11:49.285Z,26.90
2018-02-18T05:14:17.545Z,26.30
2018-02-18T05:16:45.831Z,25.87
2018-02-18T05:19:14.103Z,24.97
2018-02-18T05:21:42.392Z,26.90
2018-02-18T05:24:09.903Z,25.57
2018-02-18T05:26:37.431Z,26.73
2018-02-18T05:29:04.969Z,26.47
2018-02-18T05:31:32.476Z,23.70
2018-02-18T05:33:59.998Z,25.83
2018-02-18T05:36:27.511Z,23.23
2018-02-18T05:38:55.031Z,27.77
2018-02-18T05:41:22.536Z,26.13
2018-02-18T05:43:50.822Z,22.57
2018-02-18T05:46:19.091Z,24.13
2018-02-18T05:48:47.377Z,25.83
2018-02-18T05:51:15.647Z,26.80
2018-02-18T05:53:43.947Z,25.20
2018-02-18T05:56:11.451Z,26.50
2018-02-18T05:58:38.968Z,26.60
2018-02-18T06:01:06.470Z,27.10
2018-02-18T06:03:33.998Z,30.13
2018-02-18T06:06:01.502Z,30.80
2018-02-18T06:08:29.793Z,27.40
2018-02-18T06:10:58.064Z,29.80
2018-02-18T06:13:26.351Z,28.97
2018-02-18T06:15:53.859Z,28.93
2018-02-18T06:18:21.374Z,29.40
2018-02-18T06:20:48.878Z,28.27
2018-02-18T06:23:16.403Z,28.67
2018-02-18T06:25:43.945Z,27.03
2018-02-18T06:28:11.470Z,25.00
2018-02-18T06:30:39.062Z,28.00
2018-02-18T06:33:06.625Z,25.90
2018-02-18T06:35:34.134Z,27.80
2018-02-18T06:38:01.658Z,27.67
2018-02-18T06:40:29.203Z,25.97
2018-02-18T06:42:56.731Z,27.53
2018-02-18T06:45:25.001Z,28.23
2018-02-18T06:47:53.306Z,28.03
2018-02-18T06:50:20.806Z,27.50
2018-02-18T06:52:48.333Z,29.63
2018-02-18T06:55:15.834Z,26.97
2018-02-18T06:57:43.334Z,25.67
2018-02-18T07:00:11.621Z,24.80
2018-02-18T07:02:39.177Z,24.20
2018-02-18T07:05:06.694Z,24.50
2018-02-18T07:07:34.201Z,24.80
2018-02-18T07:10:01.754Z,24.90
2018-02-18T07:12:29.250Z,26.87
2018-02-18T07:14:56.771Z,25.07
2018-02-18T07:17:24.274Z,25.00
2018-02-18T07:19:51.795Z,23.83
2018-02-18T07:22:19.301Z,25.40
2018-02-18T07:24:46.823Z,23.43
2018-02-18T07:27:14.368Z,23.17
2018-02-18T07:29:41.924Z,27.40
2018-02-18T07:32:09.423Z,26.63
2018-02-18T07:34:36.934Z,28.30
2018-02-18T07:37:04.495Z,26.50
2018-02-18T07:39:32.023Z,26.20
2018-02-18T07:41:59.527Z,27.40
2018-02-18T07:44:27.046Z,24.23
2018-02-18T07:46:55.317Z,28.80
2018-02-18T07:49:22.829Z,28.67
2018-02-18T07:51:50.330Z,27.43
2018-02-18T07:54:17.851Z,24.80
2018-02-18T07:56:45.363Z,25.80
2018-02-18T07:59:13.654Z,26.27
2018-02-18T08:01:41.159Z,23.70
2018-02-18T08:04:08.686Z,26.93
2018-02-18T08:06:36.237Z,24.27
2018-02-18T08:09:04.503Z,25.47
2018-02-18T08:11:32.014Z,25.67
2018-02-18T08:13:59.622Z,26.60
2018-02-18T08:16:27.118Z,21.80
2018-02-18T08:18:54.642Z,24.80
2018-02-18T08:21:22.150Z,24.83
2018-02-18T08:23:49.666Z,27.37
2018-02-18T08:26:17.170Z,23.90
2018-02-18T08:28:44.685Z,23.33
2018-02-18T08:31:12.192Z,24.30
2018-02-18T08:33:39.715Z,25.07
2018-02-18T08:36:07.219Z,24.13
2018-02-18T08:38:35.527Z,24.13
2018-02-18T08:41:03.026Z,24.63
2018-02-18T08:43:30.531Z,26.33
2018-02-18T08:45:58.094Z,26.33
2018-02-18T08:48:25.595Z,24.17
2018-02-18T08:50:53.208Z,23.50
2018-02-18T08:53:20.715Z,25.53
2018-02-18T08:55:48.240Z,23.53
2018-02-18T08:58:15.742Z,24.70
2018-02-18T09:00:43.263Z,26.30
2018-02-18T09:03:10.794Z,25.70
2018-02-18T09:05:39.071Z,22.07
2018-02-18T09:08:07.339Z,26.27
2018-02-18T09:10:35.618Z,24.80
2018-02-18T09:13:03.882Z,27.40
2018-02-18T09:15:32.174Z,24.87
2018-02-18T09:18:00.440Z,26.33
2018-02-18T09:20:28.728Z,29.63
2018-02-18T09:22:56.253Z,26.57
2018-02-18T09:25:23.766Z,27.87
2018-02-18T09:27:51.266Z,23.30
2018-02-18T09:30:20.312Z,25.23
2018-02-18T09:32:47.815Z,25.47
2018-02-18T09:35:15.332Z,30.52
2018-02-18T09:37:42.831Z,30.43
2018-02-18T09:40:10.351Z,26.47
2018-02-18T09:42:37.855Z,25.27
2018-02-18T09:45:05.375Z,26.50
2018-02-18T09:47:32.869Z,23.97
2018-02-18T09:50:00.390Z,25.27
2018-02-18T09:52:27.935Z,27.80
2018-02-18T09:54:55.495Z,25.53
2018-02-18T09:57:23.001Z,25.70
2018-02-18T09:59:50.514Z,25.70
2018-02-18T10:02:18.016Z,25.60
2018-02-18T10:04:45.536Z,26.77
2018-02-18T10:07:13.030Z,24.23
2018-02-18T10:09:40.543Z,22.00
2018-02-18T10:12:08.048Z,22.00
2018-02-18T10:14:35.562Z,22.60
2018-02-18T10:17:03.074Z,21.83
2018-02-18T10:19:30.598Z,21.87
2018-02-18T10:21:58.094Z,19.43
2018-02-18T10:24:26.383Z,19.30
2018-02-18T10:26:54.651Z,20.10
2018-02-18T10:29:22.977Z,19.93
2018-02-18T10:31:50.492Z,35.83
2018-02-18T10:34:18.811Z,20.20
2018-02-18T10:36:46.330Z,19.47
2018-02-18T10:39:14.593Z,18.50
2018-02-18T10:41:42.135Z,17.97
2018-02-18T10:44:09.710Z,17.00
2018-02-18T10:46:38.007Z,17.80
2018-02-18T10:49:05.572Z,17.77
2018-02-18T10:51:33.096Z,19.03
2018-02-18T10:54:00.613Z,19.30
2018-02-18T10:56:28.151Z,21.30
2018-02-18T10:58:55.660Z,21.70
2018-02-18T11:01:23.261Z,19.30
2018-02-18T11:03:50.831Z,19.27
2018-02-18T11:06:18.394Z,22.23
2018-02-18T11:08:45.899Z,20.77
2018-02-18T11:11:13.410Z,19.70
2018-02-18T11:13:40.906Z,23.40
2018-02-18T11:16:08.519Z,22.57
2018-02-18T11:18:36.022Z,20.30
2018-02-18T11:21:03.538Z,23.00
2018-02-18T11:23:31.042Z,21.10
2018-02-18T11:25:58.559Z,20.03
2018-02-18T11:28:26.067Z,24.47
2018-02-18T11:30:53.587Z,23.13
2018-02-18T11:33:21.082Z,23.63
2018-02-18T11:35:48.599Z,24.33
2018-02-18T11:38:16.099Z,24.20
2018-02-18T11:40:43.610Z,22.60
2018-02-18T11:43:11.106Z,21.80
2018-02-18T11:45:38.618Z,23.20
2018-02-18T11:48:06.118Z,19.60
2018-02-18T11:50:33.630Z,23.27
2018-02-18T11:53:01.135Z,25.23
2018-02-18T11:55:28.650Z,23.50
2018-02-18T11:57:56.150Z,24.00
2018-02-18T12:00:23.667Z,25.23
2018-02-18T12:02:51.223Z,24.47
2018-02-18T12:05:18.778Z,23.77
2018-02-18T12:07:46.274Z,24.13
2018-02-18T12:10:13.783Z,24.07
2018-02-18T12:12:42.052Z,21.50
2018-02-18T12:15:10.335Z,24.07
2018-02-18T12:17:38.606Z,23.17
2018-02-18T12:20:06.885Z,21.33
2018-02-18T12:22:35.151Z,22.00
2018-02-18T12:25:03.430Z,25.03
2018-02-18T12:27:31.690Z,23.63
2018-02-18T12:29:59.277Z,23.70
2018-02-18T12:32:27.546Z,22.10
2018-02-18T12:34:55.823Z,22.07
2018-02-18T12:37:24.102Z,21.53
2018-02-18T12:39:52.364Z,22.97
2018-02-18T12:42:20.653Z,22.87
2018-02-18T12:44:48.914Z,21.03
2018-02-18T12:47:17.207Z,22.83
2018-02-18T12:49:44.718Z,22.03
2018-02-18T12:52:12.232Z,21.57
2018-02-18T12:54:39.835Z,23.53
2018-02-18T12:57:07.355Z,21.20
2018-02-18T12:59:34.859Z,20.43
2018-02-18T13:02:02.372Z,21.00
2018-02-18T13:04:29.882Z,20.80
2018-02-18T13:06:57.394Z,20.60
2018-02-18T13:09:24.943Z,20.13
2018-02-18T13:11:52.502Z,19.23
2018-02-18T13:14:20.000Z,18.20
2018-02-18T13:16:47.523Z,17.23
2018-02-18T13:19:15.022Z,14.97
2018-02-18T13:21:42.545Z,15.10
2018-02-18T13:24:10.042Z,14.43
2018-02-18T13:26:37.560Z,14.47
2018-02-18T13:29:05.062Z,15.30
2018-02-18T13:31:32.578Z,13.87
2018-02-18T13:34:00.088Z,15.67
2018-02-18T13:36:27.598Z,14.67
2018-02-18T13:38:55.102Z,14.33
2018-02-18T13:41:22.614Z,13.73
2018-02-18T13:43:50.106Z,16.20
2018-02-18T13:46:17.623Z,15.77
2018-02-18T13:48:45.125Z,14.13
2018-02-18T13:51:12.647Z,14.73
2018-02-18T13:53:40.148Z,15.10
2018-02-18T13:56:07.644Z,14.60
2018-02-18T13:58:35.158Z,15.20
2018-02-18T14:01:02.669Z,18.17
2018-02-18T14:03:30.187Z,16.67
2018-02-18T14:05:58.460Z,15.97
2018-02-18T14:08:26.054Z,16.03
2018-02-18T14:10:53.549Z,15.80
2018-02-18T14:13:21.066Z,18.43
2018-02-18T14:15:48.572Z,17.63
2018-02-18T14:18:16.094Z,17.63
2018-02-18T14:20:43.647Z,18.73
2018-02-18T14:23:11.167Z,19.00
2018-02-18T14:25:38.666Z,18.53
2018-02-18T14:28:06.187Z,21.20
2018-02-18T14:30:33.692Z,21.13
2018-02-18T14:33:01.230Z,19.33
2018-02-18T14:35:28.743Z,19.60
2018-02-18T14:37:56.357Z,20.30
2018-02-18T14:40:23.915Z,19.60
2018-02-18T14:43:03.426Z,21.27
2018-02-18T14:45:43.621Z,23.67
2018-02-18T14:48:23.102Z,21.20
2018-02-18T14:51:02.598Z,21.93
2018-02-18T14:53:41.975Z,23.30
2018-02-18T14:56:21.359Z,20.63
2018-02-18T14:58:48.889Z,19.50
2018-02-18T15:01:17.163Z,19.87
2018-02-18T15:03:45.434Z,19.03
2018-02-18T15:06:12.955Z,22.20
2018-02-18T15:08:40.458Z,21.43
2018-02-18T15:11:08.746Z,19.67
2018-02-18T15:13:37.011Z,19.47
2018-02-18T15:16:05.286Z,20.43
2018-02-18T15:18:33.630Z,22.33
2018-02-18T15:21:01.147Z,22.37
2018-02-18T15:23:28.654Z,23.23
2018-02-18T15:25:56.939Z,21.10
2018-02-18T15:28:24.438Z,21.50
2018-02-18T15:30:51.953Z,21.20
2018-02-18T15:33:19.459Z,23.33
2018-02-18T15:35:46.998Z,23.37
2018-02-18T15:38:15.258Z,22.00
2018-02-18T15:40:42.778Z,22.30
2018-02-18T15:43:10.278Z,23.70
2018-02-18T15:45:38.563Z,23.90
2018-02-18T15:48:06.835Z,24.07
2018-02-18T15:50:35.110Z,25.50
2018-02-18T15:53:03.394Z,22.57
2018-02-18T15:55:31.662Z,23.77
2018-02-18T15:57:59.956Z,24.13
2018-02-18T16:00:27.455Z,25.80
2018-02-18T16:02:54.978Z,23.63
2018-02-18T16:05:22.487Z,26.50
2018-02-18T16:07:50.011Z,25.00
2018-02-18T16:10:17.523Z,22.23
2018-02-18T16:12:45.819Z,22.70
2018-02-18T16:15:13.327Z,23.20
2018-02-18T16:17:40.856Z,22.00
2018-02-18T16:20:08.363Z,21.83
2018-02-18T16:22:35.887Z,23.60
2018-02-18T16:25:03.394Z,23.10
2018-02-18T16:27:31.687Z,21.43
2018-02-18T16:29:59.190Z,23.77
2018-02-18T16:32:26.730Z,24.30
2018-02-18T16:34:54.235Z,24.60
2018-02-18T16:37:21.755Z,27.57
2018-02-18T16:39:50.022Z,24.10
2018-02-18T16:42:17.542Z,24.37
2018-02-18T16:44:45.815Z,24.00
2018-02-18T16:47:14.106Z,24.53
2018-02-18T16:49:41.605Z,24.70
2018-02-18T16:52:09.135Z,22.13
2018-02-18T16:54:36.638Z,23.57
2018-02-18T16:57:04.147Z,21.07
2018-02-18T16:59:31.661Z,20.40
2018-02-18T17:01:59.166Z,20.73
2018-02-18T17:04:26.686Z,18.30
2018-02-18T17:06:54.191Z,19.00
2018-02-18T17:09:21.727Z,20.37
2018-02-18T17:11:49.242Z,20.07
2018-02-18T17:14:16.763Z,20.40
2018-02-18T17:16:44.274Z,22.07
2018-02-18T17:19:11.794Z,24.57
2018-02-18T17:21:39.299Z,22.77
2018-02-18T17:24:07.581Z,21.77
2018-02-18T17:26:35.842Z,22.43
2018-02-18T17:29:03.366Z,22.40
2018-02-18T17:31:30.871Z,20.50
2018-02-18T17:33:59.163Z,23.17
2018-02-18T17:36:26.667Z,21.83
2018-02-18T17:38:54.229Z,23.73
2018-02-18T17:41:21.710Z,24.20
2018-02-18T17:43:49.227Z,22.43
2018-02-18T17:46:16.727Z,23.97
2018-02-18T17:48:44.246Z,24.10
2018-02-18T17:51:11.751Z,25.70
2018-02-18T17:53:40.033Z,26.33
2018-02-18T17:56:08.304Z,26.30
2018-02-18T17:58:36.571Z,27.10
2018-02-18T18:01:04.863Z,26.27
2018-02-18T18:03:33.126Z,27.90
2018-02-18T18:06:01.420Z,30.17
2018-02-18T18:08:29.711Z,27.07
2018-02-18T18:10:57.222Z,28.87
2018-02-18T18:13:24.722Z,28.47
2018-02-18T18:15:52.243Z,29.50
2018-02-18T18:18:19.746Z,29.63
2018-02-18T18:20:47.266Z,29.03
2018-02-18T18:23:14.766Z,31.13
2018-02-18T18:25:42.282Z,31.60
2018-02-18T18:28:09.791Z,30.90
2018-02-18T18:30:37.310Z,29.70
2018-02-18T18:33:05.600Z,30.13
2018-02-18T18:35:33.879Z,33.60
2018-02-18T18:38:01.387Z,36.33
2018-02-18T18:40:28.911Z,33.17
2018-02-18T18:42:56.420Z,33.60
2018-02-18T18:45:23.947Z,33.70
2018-02-18T18:47:51.451Z,32.30
2018-02-18T18:50:19.746Z,32.27
2018-02-18T18:52:47.254Z,33.20
2018-02-18T18:55:14.782Z,33.60
2018-02-18T18:57:42.278Z,35.20
2018-02-18T19:00:09.790Z,32.73
2018-02-18T19:02:37.306Z,34.77
2018-02-18T19:05:04.816Z,29.37
2018-02-18T19:07:32.334Z,27.87
2018-02-18T19:10:00.598Z,28.90
2018-02-18T19:12:28.115Z,28.37
2018-02-18T19:14:55.623Z,28.20
2018-02-18T19:17:23.916Z,27.90
2018-02-18T19:19:51.424Z,29.83
2018-02-18T19:22:18.938Z,29.70
2018-02-18T19:24:46.498Z,29.33
2018-02-18T19:27:14.018Z,29.60
2018-02-18T19:29:41.527Z,25.87
2018-02-18T19:32:09.047Z,26.83
2018-02-18T19:34:37.318Z,25.80
2018-02-18T19:37:05.603Z,23.20
2018-02-18T19:39:33.874Z,23.13
2018-02-18T19:42:02.158Z,24.93
2018-02-18T19:44:30.426Z,25.70
2018-02-18T19:46:58.710Z,27.37
2018-02-18T19:49:26.985Z,24.27
2018-02-18T19:51:55.271Z,23.10
2018-02-18T19:54:22.787Z,23.20
2018-02-18T19:56:50.307Z,23.83
2018-02-18T19:59:17.811Z,23.07
2018-02-18T20:01:45.340Z,22.60
2018-02-18T20:04:12.838Z,24.40
2018-02-18T20:06:40.359Z,22.30
2018-02-18T20:09:07.862Z,22.97
2018-02-18T20:11:36.147Z,24.47
2018-02-18T20:14:04.420Z,25.20
2018-02-18T20:16:32.702Z,24.93
2018-02-18T20:19:00.980Z,24.60
2018-02-18T20:21:28.506Z,25.67
2018-02-18T20:23:56.012Z,24.53
2018-02-18T20:26:23.558Z,22.33
2018-02-18T20:28:51.059Z,23.77
2018-02-18T20:31:18.579Z,27.90
2018-02-18T20:33:46.139Z,25.37
2018-02-18T20:36:13.657Z,28.33
2018-02-18T20:38:41.158Z,25.80
2018-02-18T20:41:08.686Z,28.10
2018-02-18T20:43:36.991Z,28.30
2018-02-18T20:46:04.500Z,31.60
2018-02-18T20:48:32.047Z,28.20
2018-02-18T20:50:59.679Z,27.20
2018-02-18T20:53:27.340Z,29.10
2018-02-18T20:55:54.880Z,28.80
2018-02-18T20:58:22.410Z,29.30
2018-02-18T21:00:49.967Z,28.97
2018-02-18T21:03:17.491Z,26.67
2018-02-18T21:05:45.055Z,26.30
2018-02-18T21:08:12.583Z,28.00
2018-02-18T21:10:40.119Z,26.10
2018-02-18T21:13:08.405Z,29.17
2018-02-18T21:15:36.805Z,29.57
2018-02-18T21:18:04.570Z,28.33
2018-02-18T21:20:32.090Z,27.67
2018-02-18T21:23:00.375Z,26.67
2018-02-18T21:25:28.822Z,27.50
2018-02-18T21:27:56.455Z,26.33
2018-02-18T21:30:23.963Z,29.10
2018-02-18T21:32:52.310Z,26.77
2018-02-18T21:35:19.811Z,26.53
2018-02-18T21:37:48.099Z,25.90
2018-02-18T21:40:15.682Z,27.73
2018-02-18T21:42:43.211Z,28.40
2018-02-18T21:45:11.478Z,29.00
2018-02-18T21:47:39.758Z,27.57
2018-02-18T21:50:08.026Z,28.20
2018-02-18T21:52:36.310Z,25.90
2018-02-18T21:55:04.582Z,26.83
2018-02-18T21:57:32.866Z,28.33
2018-02-18T22:00:01.143Z,29.37
2018-02-18T22:02:28.716Z,30.70
2018-02-18T22:04:56.222Z,28.70
2018-02-18T22:07:23.746Z,29.00
2018-02-18T22:09:51.254Z,27.67
2018-02-18T22:12:18.754Z,29.10
2018-02-18T22:14:46.304Z,27.43
2018-02-18T22:17:13.815Z,27.90
2018-02-18T22:19:42.107Z,29.67
2018-02-18T22:22:10.409Z,27.67
2018-02-18T22:24:37.945Z,26.60
2018-02-18T22:27:06.211Z,24.53
2018-02-18T22:32:07.658Z,27.63
2018-02-18T22:34:35.184Z,25.80
2018-02-18T22:37:02.698Z,24.83
2018-02-18T22:39:30.227Z,25.50
2018-02-18T22:41:57.725Z,27.30
2018-02-18T22:44:26.014Z,29.43
2018-02-18T22:46:53.578Z,27.63
2018-02-18T22:49:21.102Z,25.80
2018-02-18T22:51:48.698Z,28.80
2018-02-18T22:54:16.219Z,28.20
2018-02-18T22:56:44.556Z,26.83
2018-02-18T22:59:12.099Z,27.27
2018-02-18T23:01:39.604Z,27.80
2018-02-18T23:04:07.142Z,28.53
2018-02-18T23:06:34.642Z,27.87
2018-02-18T23:09:02.910Z,26.80
2018-02-18T23:11:30.434Z,30.70
2018-02-18T23:13:57.944Z,30.57
2018-02-18T23:16:26.235Z,29.07
2018-02-18T23:18:53.739Z,29.23
2018-02-18T23:21:21.263Z,28.83
2018-02-18T23:23:48.815Z,30.17
2018-02-18T23:26:16.337Z,28.77
2018-02-18T23:28:43.843Z,29.70
2018-02-18T23:31:11.386Z,26.53
2018-02-18T23:33:38.893Z,26.47
2018-02-18T23:36:06.406Z,30.57
2018-02-18T23:38:33.910Z,31.20
2018-02-18T23:41:01.427Z,29.00
2018-02-18T23:43:28.946Z,27.27
2018-02-18T23:45:56.462Z,31.10
2018-02-18T23:48:23.967Z,28.70
2018-02-18T23:50:52.256Z,29.03
2018-02-18T23:53:20.522Z,29.07
2018-02-18T23:55:48.806Z,29.17
2018-02-18T23:58:17.078Z,27.33
